Hialeah, Florida
Current Conditions -  °F | °C
As of 7:53 PM on Monday 22 Dec 2014 (Local Time) from KMIA Reporting Station
Broken Clouds Broken Clouds  
Wind Chill: 24°   Ceiling: 25000
Heat Index: 24°   Visibility: 10mi
Dew Point: 21°   Wind: 5mph
Humidity: 84%   Direction: 130°SE
Pressure: 29.98"   Gusts: NA
Location:  25.86°N, 80.29°W
Report Text: KMIA 230053Z 13004KT 10SM FEW015 BKN250 24/21 A2998 RMK AO2 SLP152 T02390211
Loading
Personal Weather Stations






























Interactive Weather Map New forecast layout! Learn more

10-Day Weather Forecast

Advertisements
Track Severe Weather on mobile